"WATCHING THE WEATHER TO PROTECT LIFE AND PROPERTY"


THERE ARE CURRENTLY NO WATCHES NOR WARNINGS


Aviation
Satellite (InfraRed)


TNCA 042100Z 08018KT 9999 FEW020 31/24 Q1010 NOSIG
TNCB 042055Z 08015KT 050V110 9999 FEW020 30/24 Q1010
TNCC 042100Z AUTO 09009KT 9999 FEW024 30/24 Q1011
TNCM 042100Z 07010KT 9999 FEW020 31/22 Q1015 NOSIG RMK CB TOP-OVHD